sensor_id;sensor_type;location;lat;lon;timestamp;P1;durP1;ratioP1;P2;durP2;ratioP2
34505;SDS011;20748;42.632;23.198;2023-11-22T00:00:15;3.05;;;1.65;;
34505;SDS011;20748;42.632;23.198;2023-11-22T00:02:50;3.30;;;1.75;;
34505;SDS011;20748;42.632;23.198;2023-11-22T00:05:24;3.92;;;1.67;;
34505;SDS011;20748;42.632;23.198;2023-11-22T00:07:57;2.53;;;1.48;;
34505;SDS011;20748;42.632;23.198;2023-11-22T00:10:33;2.72;;;1.38;;
34505;SDS011;20748;42.632;23.198;2023-11-22T00:13:07;4.38;;;1.83;;
34505;SDS011;20748;42.632;23.198;2023-11-22T00:15:41;3.10;;;1.30;;
34505;SDS011;20748;42.632;23.198;2023-11-22T00:18:14;4.15;;;2.10;;
34505;SDS011;20748;42.632;23.198;2023-11-22T00:20:48;5.43;;;2.17;;
34505;SDS011;20748;42.632;23.198;2023-11-22T00:23:22;5.03;;;1.90;;
34505;SDS011;20748;42.632;23.198;2023-11-22T00:26:01;6.18;;;2.78;;
34505;SDS011;20748;42.632;23.198;2023-11-22T00:28:35;6.65;;;3.03;;
34505;SDS011;20748;42.632;23.198;2023-11-22T00:31:08;10.68;;;4.20;;
34505;SDS011;20748;42.632;23.198;2023-11-22T00:33:42;8.23;;;3.55;;
34505;SDS011;20748;42.632;23.198;2023-11-22T00:36:16;9.15;;;4.10;;
34505;SDS011;20748;42.632;23.198;2023-11-22T00:38:50;16.98;;;7.70;;
34505;SDS011;20748;42.632;23.198;2023-11-22T00:41:25;30.40;;;13.20;;
34505;SDS011;20748;42.632;23.198;2023-11-22T00:44:03;7.93;;;5.68;;
34505;SDS011;20748;42.632;23.198;2023-11-22T00:46:38;4.55;;;2.90;;
34505;SDS011;20748;42.632;23.198;2023-11-22T00:49:12;2.92;;;2.00;;
34505;SDS011;20748;42.632;23.198;2023-11-22T00:51:46;7.55;;;2.90;;
34505;SDS011;20748;42.632;23.198;2023-11-22T00:54:20;3.72;;;2.17;;
34505;SDS011;20748;42.632;23.198;2023-11-22T00:56:55;7.60;;;2.97;;
34505;SDS011;20748;42.632;23.198;2023-11-22T00:59:29;4.07;;;2.20;;
34505;SDS011;20748;42.632;23.198;2023-11-22T01:02:03;8.30;;;2.30;;
34505;SDS011;20748;42.632;23.198;2023-11-22T01:04:37;4.45;;;2.25;;
34505;SDS011;20748;42.632;23.198;2023-11-22T01:07:11;19.05;;;3.55;;
34505;SDS011;20748;42.632;23.198;2023-11-22T01:09:45;8.40;;;2.65;;
34505;SDS011;20748;42.632;23.198;2023-11-22T01:12:20;8.77;;;4.07;;
34505;SDS011;20748;42.632;23.198;2023-11-22T01:14:54;9.88;;;5.03;;
34505;SDS011;20748;42.632;23.198;2023-11-22T01:17:28;15.05;;;8.43;;
34505;SDS011;20748;42.632;23.198;2023-11-22T01:20:06;12.55;;;7.43;;
34505;SDS011;20748;42.632;23.198;2023-11-22T01:22:42;18.15;;;4.65;;
34505;SDS011;20748;42.632;23.198;2023-11-22T01:25:16;11.88;;;5.97;;
34505;SDS011;20748;42.632;23.198;2023-11-22T01:27:51;11.20;;;4.78;;
34505;SDS011;20748;42.632;23.198;2023-11-22T01:30:25;9.13;;;3.90;;
34505;SDS011;20748;42.632;23.198;2023-11-22T01:33:00;9.18;;;5.32;;
34505;SDS011;20748;42.632;23.198;2023-11-22T01:35:34;7.65;;;4.05;;
34505;SDS011;20748;42.632;23.198;2023-11-22T01:38:08;11.65;;;5.82;;
34505;SDS011;20748;42.632;23.198;2023-11-22T01:40:43;7.65;;;3.92;;
34505;SDS011;20748;42.632;23.198;2023-11-22T01:43:19;14.57;;;5.50;;
34505;SDS011;20748;42.632;23.198;2023-11-22T01:45:56;9.35;;;4.13;;
34505;SDS011;20748;42.632;23.198;2023-11-22T01:48:30;8.27;;;4.07;;
34505;SDS011;20748;42.632;23.198;2023-11-22T01:51:05;8.98;;;4.32;;
34505;SDS011;20748;42.632;23.198;2023-11-22T01:53:40;7.65;;;4.20;;
34505;SDS011;20748;42.632;23.198;2023-11-22T01:56:15;10.20;;;5.85;;
34505;SDS011;20748;42.632;23.198;2023-11-22T01:58:51;5.10;;;2.53;;
34505;SDS011;20748;42.632;23.198;2023-11-22T02:01:26;5.53;;;2.50;;
34505;SDS011;20748;42.632;23.198;2023-11-22T02:04:01;8.88;;;4.68;;
34505;SDS011;20748;42.632;23.198;2023-11-22T02:06:34;9.20;;;4.82;;
34505;SDS011;20748;42.632;23.198;2023-11-22T02:09:09;8.85;;;3.33;;
34505;SDS011;20748;42.632;23.198;2023-11-22T02:11:45;8.02;;;3.83;;
34505;SDS011;20748;42.632;23.198;2023-11-22T02:14:21;8.05;;;4.78;;
34505;SDS011;20748;42.632;23.198;2023-11-22T02:16:55;13.68;;;4.13;;
34505;SDS011;20748;42.632;23.198;2023-11-22T02:19:31;9.38;;;3.60;;
34505;SDS011;20748;42.632;23.198;2023-11-22T02:22:05;7.22;;;4.22;;
34505;SDS011;20748;42.632;23.198;2023-11-22T02:24:40;6.20;;;3.40;;
34505;SDS011;20748;42.632;23.198;2023-11-22T02:27:13;7.43;;;3.28;;
34505;SDS011;20748;42.632;23.198;2023-11-22T02:29:47;7.03;;;3.67;;
34505;SDS011;20748;42.632;23.198;2023-11-22T02:32:22;7.28;;;4.30;;
34505;SDS011;20748;42.632;23.198;2023-11-22T02:34:56;9.32;;;4.65;;
34505;SDS011;20748;42.632;23.198;2023-11-22T02:37:31;9.48;;;5.43;;
34505;SDS011;20748;42.632;23.198;2023-11-22T02:40:09;7.63;;;4.43;;
34505;SDS011;20748;42.632;23.198;2023-11-22T02:42:50;8.40;;;3.90;;
34505;SDS011;20748;42.632;23.198;2023-11-22T02:45:26;6.97;;;4.13;;
34505;SDS011;20748;42.632;23.198;2023-11-22T02:48:01;14.18;;;4.75;;
34505;SDS011;20748;42.632;23.198;2023-11-22T02:50:36;12.43;;;5.75;;
34505;SDS011;20748;42.632;23.198;2023-11-22T02:53:10;12.02;;;5.30;;
34505;SDS011;20748;42.632;23.198;2023-11-22T02:55:46;11.75;;;4.68;;
34505;SDS011;20748;42.632;23.198;2023-11-22T02:58:20;6.88;;;3.85;;
34505;SDS011;20748;42.632;23.198;2023-11-22T03:00:53;8.77;;;4.18;;
34505;SDS011;20748;42.632;23.198;2023-11-22T03:03:29;11.73;;;5.43;;
34505;SDS011;20748;42.632;23.198;2023-11-22T03:06:03;9.20;;;5.10;;
34505;SDS011;20748;42.632;23.198;2023-11-22T03:08:37;6.75;;;3.97;;
34505;SDS011;20748;42.632;23.198;2023-11-22T03:11:12;11.80;;;4.00;;
34505;SDS011;20748;42.632;23.198;2023-11-22T03:13:46;7.85;;;3.97;;
34505;SDS011;20748;42.632;23.198;2023-11-22T03:16:21;16.13;;;8.68;;
34505;SDS011;20748;42.632;23.198;2023-11-22T03:18:56;11.63;;;7.28;;
34505;SDS011;20748;42.632;23.198;2023-11-22T03:21:30;17.20;;;8.30;;
34505;SDS011;20748;42.632;23.198;2023-11-22T03:24:04;10.95;;;6.22;;
34505;SDS011;20748;42.632;23.198;2023-11-22T03:26:39;13.93;;;6.97;;
34505;SDS011;20748;42.632;23.198;2023-11-22T03:29:14;14.90;;;6.55;;
34505;SDS011;20748;42.632;23.198;2023-11-22T03:31:50;10.70;;;4.68;;
34505;SDS011;20748;42.632;23.198;2023-11-22T03:34:24;8.20;;;4.40;;
34505;SDS011;20748;42.632;23.198;2023-11-22T03:36:58;10.50;;;4.70;;
34505;SDS011;20748;42.632;23.198;2023-11-22T03:39:31;8.38;;;4.18;;
34505;SDS011;20748;42.632;23.198;2023-11-22T03:42:07;7.18;;;3.22;;
34505;SDS011;20748;42.632;23.198;2023-11-22T03:44:41;8.27;;;2.85;;
34505;SDS011;20748;42.632;23.198;2023-11-22T03:47:15;6.60;;;3.03;;
34505;SDS011;20748;42.632;23.198;2023-11-22T03:49:51;6.88;;;2.90;;
34505;SDS011;20748;42.632;23.198;2023-11-22T03:52:25;6.90;;;3.45;;
34505;SDS011;20748;42.632;23.198;2023-11-22T03:54:59;7.85;;;3.88;;
34505;SDS011;20748;42.632;23.198;2023-11-22T03:57:34;8.63;;;4.57;;
34505;SDS011;20748;42.632;23.198;2023-11-22T04:00:08;8.73;;;3.88;;
34505;SDS011;20748;42.632;23.198;2023-11-22T04:02:44;11.52;;;5.38;;
34505;SDS011;20748;42.632;23.198;2023-11-22T04:05:18;8.23;;;4.78;;
34505;SDS011;20748;42.632;23.198;2023-11-22T04:07:52;10.50;;;4.28;;
34505;SDS011;20748;42.632;23.198;2023-11-22T04:10:26;7.47;;;3.80;;
34505;SDS011;20748;42.632;23.198;2023-11-22T04:13:02;9.73;;;4.72;;
34505;SDS011;20748;42.632;23.198;2023-11-22T04:15:37;11.65;;;5.47;;
34505;SDS011;20748;42.632;23.198;2023-11-22T04:18:11;9.27;;;4.55;;
34505;SDS011;20748;42.632;23.198;2023-11-22T04:20:45;7.88;;;3.83;;
34505;SDS011;20748;42.632;23.198;2023-11-22T04:23:20;10.82;;;4.40;;
34505;SDS011;20748;42.632;23.198;2023-11-22T04:25:54;7.10;;;3.00;;
34505;SDS011;20748;42.632;23.198;2023-11-22T04:28:31;9.18;;;2.85;;
34505;SDS011;20748;42.632;23.198;2023-11-22T04:31:05;3.67;;;2.30;;
34505;SDS011;20748;42.632;23.198;2023-11-22T04:33:41;4.05;;;2.15;;
34505;SDS011;20748;42.632;23.198;2023-11-22T04:36:15;8.35;;;3.60;;
34505;SDS011;20748;42.632;23.198;2023-11-22T04:38:49;11.77;;;5.13;;
34505;SDS011;20748;42.632;23.198;2023-11-22T04:41:22;4.18;;;2.60;;
34505;SDS011;20748;42.632;23.198;2023-11-22T04:44:00;7.57;;;3.92;;
34505;SDS011;20748;42.632;23.198;2023-11-22T04:46:34;6.28;;;4.53;;
34505;SDS011;20748;42.632;23.198;2023-11-22T04:49:08;13.95;;;4.85;;
34505;SDS011;20748;42.632;23.198;2023-11-22T04:51:41;9.60;;;4.47;;
34505;SDS011;20748;42.632;23.198;2023-11-22T04:54:16;11.57;;;4.80;;
34505;SDS011;20748;42.632;23.198;2023-11-22T04:56:50;7.45;;;4.00;;
34505;SDS011;20748;42.632;23.198;2023-11-22T04:59:25;7.43;;;3.58;;
34505;SDS011;20748;42.632;23.198;2023-11-22T05:01:59;6.85;;;2.28;;
34505;SDS011;20748;42.632;23.198;2023-11-22T05:04:33;3.47;;;1.77;;
34505;SDS011;20748;42.632;23.198;2023-11-22T05:07:06;5.80;;;2.40;;
34505;SDS011;20748;42.632;23.198;2023-11-22T05:09:40;6.93;;;2.90;;
34505;SDS011;20748;42.632;23.198;2023-11-22T05:12:15;4.38;;;2.30;;
34505;SDS011;20748;42.632;23.198;2023-11-22T05:14:51;5.03;;;2.72;;
34505;SDS011;20748;42.632;23.198;2023-11-22T05:17:25;4.63;;;2.35;;
34505;SDS011;20748;42.632;23.198;2023-11-22T05:19:59;4.18;;;2.30;;
34505;SDS011;20748;42.632;23.198;2023-11-22T05:22:34;5.30;;;2.83;;
34505;SDS011;20748;42.632;23.198;2023-11-22T05:25:08;7.60;;;4.00;;
34505;SDS011;20748;42.632;23.198;2023-11-22T05:27:43;10.90;;;5.65;;
34505;SDS011;20748;42.632;23.198;2023-11-22T05:30:18;9.73;;;5.70;;
34505;SDS011;20748;42.632;23.198;2023-11-22T05:32:53;10.75;;;6.10;;
34505;SDS011;20748;42.632;23.198;2023-11-22T05:35:26;13.43;;;7.38;;
34505;SDS011;20748;42.632;23.198;2023-11-22T05:38:00;9.07;;;5.40;;
34505;SDS011;20748;42.632;23.198;2023-11-22T05:40:34;5.85;;;3.65;;
34505;SDS011;20748;42.632;23.198;2023-11-22T05:43:08;6.65;;;3.67;;
34505;SDS011;20748;42.632;23.198;2023-11-22T05:45:45;6.55;;;4.15;;
34505;SDS011;20748;42.632;23.198;2023-11-22T05:48:22;12.75;;;6.72;;
34505;SDS011;20748;42.632;23.198;2023-11-22T05:50:56;8.85;;;5.40;;
34505;SDS011;20748;42.632;23.198;2023-11-22T05:53:30;8.70;;;4.45;;
34505;SDS011;20748;42.632;23.198;2023-11-22T05:56:03;6.85;;;3.65;;
34505;SDS011;20748;42.632;23.198;2023-11-22T05:58:40;8.50;;;4.20;;
34505;SDS011;20748;42.632;23.198;2023-11-22T06:01:15;6.18;;;3.42;;
34505;SDS011;20748;42.632;23.198;2023-11-22T06:03:49;9.00;;;4.72;;
34505;SDS011;20748;42.632;23.198;2023-11-22T06:06:22;8.48;;;5.13;;
34505;SDS011;20748;42.632;23.198;2023-11-22T06:08:56;11.00;;;5.55;;
34505;SDS011;20748;42.632;23.198;2023-11-22T06:11:30;11.93;;;5.28;;
34505;SDS011;20748;42.632;23.198;2023-11-22T06:14:04;10.95;;;5.75;;
34505;SDS011;20748;42.632;23.198;2023-11-22T06:16:40;12.32;;;6.18;;
34505;SDS011;20748;42.632;23.198;2023-11-22T06:19:14;9.55;;;5.28;;
34505;SDS011;20748;42.632;23.198;2023-11-22T06:21:47;9.45;;;5.15;;
34505;SDS011;20748;42.632;23.198;2023-11-22T06:24:22;10.15;;;5.03;;
34505;SDS011;20748;42.632;23.198;2023-11-22T06:26:55;11.80;;;4.50;;
34505;SDS011;20748;42.632;23.198;2023-11-22T06:29:29;7.43;;;3.95;;
34505;SDS011;20748;42.632;23.198;2023-11-22T06:32:05;9.43;;;4.65;;
34505;SDS011;20748;42.632;23.198;2023-11-22T06:34:39;12.18;;;8.10;;
34505;SDS011;20748;42.632;23.198;2023-11-22T06:37:14;16.20;;;8.45;;
34505;SDS011;20748;42.632;23.198;2023-11-22T06:39:48;11.05;;;5.93;;
34505;SDS011;20748;42.632;23.198;2023-11-22T06:42:23;9.80;;;6.35;;
34505;SDS011;20748;42.632;23.198;2023-11-22T06:44:56;9.80;;;5.28;;
34505;SDS011;20748;42.632;23.198;2023-11-22T06:47:34;8.77;;;4.78;;
34505;SDS011;20748;42.632;23.198;2023-11-22T06:50:09;7.63;;;5.72;;
34505;SDS011;20748;42.632;23.198;2023-11-22T06:52:43;9.85;;;5.90;;
34505;SDS011;20748;42.632;23.198;2023-11-22T06:55:18;28.05;;;20.13;;
34505;SDS011;20748;42.632;23.198;2023-11-22T06:57:52;22.42;;;14.93;;
34505;SDS011;20748;42.632;23.198;2023-11-22T07:00:26;17.63;;;11.27;;
34505;SDS011;20748;42.632;23.198;2023-11-22T07:03:02;16.45;;;10.15;;
34505;SDS011;20748;42.632;23.198;2023-11-22T07:05:36;11.25;;;7.13;;
34505;SDS011;20748;42.632;23.198;2023-11-22T07:08:10;15.40;;;8.82;;
34505;SDS011;20748;42.632;23.198;2023-11-22T07:10:44;14.15;;;7.63;;
34505;SDS011;20748;42.632;23.198;2023-11-22T07:13:18;15.98;;;8.68;;
34505;SDS011;20748;42.632;23.198;2023-11-22T07:15:52;15.63;;;9.38;;
34505;SDS011;20748;42.632;23.198;2023-11-22T07:18:27;15.52;;;9.10;;
34505;SDS011;20748;42.632;23.198;2023-11-22T07:21:01;19.75;;;11.13;;
34505;SDS011;20748;42.632;23.198;2023-11-22T07:23:35;35.97;;;16.30;;
34505;SDS011;20748;42.632;23.198;2023-11-22T07:26:09;26.13;;;13.68;;
34505;SDS011;20748;42.632;23.198;2023-11-22T07:28:43;15.05;;;8.98;;
34505;SDS011;20748;42.632;23.198;2023-11-22T07:31:16;13.25;;;7.72;;
34505;SDS011;20748;42.632;23.198;2023-11-22T07:33:52;11.13;;;7.30;;
34505;SDS011;20748;42.632;23.198;2023-11-22T07:36:27;17.92;;;11.05;;
34505;SDS011;20748;42.632;23.198;2023-11-22T07:39:00;19.23;;;11.30;;
34505;SDS011;20748;42.632;23.198;2023-11-22T07:41:34;12.57;;;8.38;;
34505;SDS011;20748;42.632;23.198;2023-11-22T07:44:09;26.95;;;10.73;;
34505;SDS011;20748;42.632;23.198;2023-11-22T07:46:45;19.35;;;10.63;;
34505;SDS011;20748;42.632;23.198;2023-11-22T07:49:20;17.08;;;10.35;;
34505;SDS011;20748;42.632;23.198;2023-11-22T07:51:54;19.77;;;10.98;;
34505;SDS011;20748;42.632;23.198;2023-11-22T07:54:29;15.80;;;9.70;;
34505;SDS011;20748;42.632;23.198;2023-11-22T07:57:03;21.17;;;14.23;;
34505;SDS011;20748;42.632;23.198;2023-11-22T07:59:37;30.00;;;15.90;;
34505;SDS011;20748;42.632;23.198;2023-11-22T08:02:11;30.50;;;14.57;;
34505;SDS011;20748;42.632;23.198;2023-11-22T08:04:46;27.40;;;15.85;;
34505;SDS011;20748;42.632;23.198;2023-11-22T08:07:21;29.60;;;15.85;;
34505;SDS011;20748;42.632;23.198;2023-11-22T08:09:55;26.05;;;16.63;;
34505;SDS011;20748;42.632;23.198;2023-11-22T08:12:29;19.27;;;10.10;;
34505;SDS011;20748;42.632;23.198;2023-11-22T08:15:04;9.70;;;6.22;;
34505;SDS011;20748;42.632;23.198;2023-11-22T08:17:41;11.40;;;6.20;;
34505;SDS011;20748;42.632;23.198;2023-11-22T08:20:17;11.05;;;5.90;;
34505;SDS011;20748;42.632;23.198;2023-11-22T08:22:52;11.80;;;6.70;;
34505;SDS011;20748;42.632;23.198;2023-11-22T08:25:26;19.20;;;10.10;;
34505;SDS011;20748;42.632;23.198;2023-11-22T08:28:00;14.50;;;7.22;;
34505;SDS011;20748;42.632;23.198;2023-11-22T08:30:34;12.50;;;7.15;;
34505;SDS011;20748;42.632;23.198;2023-11-22T08:33:09;13.50;;;7.07;;
34505;SDS011;20748;42.632;23.198;2023-11-22T08:35:44;12.98;;;7.53;;
34505;SDS011;20748;42.632;23.198;2023-11-22T08:40:56;14.75;;;6.40;;
34505;SDS011;20748;42.632;23.198;2023-11-22T08:43:32;9.00;;;6.32;;
34505;SDS011;20748;42.632;23.198;2023-11-22T08:46:06;13.57;;;7.93;;
34505;SDS011;20748;42.632;23.198;2023-11-22T08:48:46;19.00;;;10.50;;
34505;SDS011;20748;42.632;23.198;2023-11-22T08:51:21;16.13;;;10.20;;
34505;SDS011;20748;42.632;23.198;2023-11-22T08:53:54;13.15;;;7.03;;
34505;SDS011;20748;42.632;23.198;2023-11-22T08:56:28;12.07;;;6.40;;
34505;SDS011;20748;42.632;23.198;2023-11-22T08:59:02;9.75;;;6.25;;
34505;SDS011;20748;42.632;23.198;2023-11-22T09:01:37;9.80;;;6.53;;
34505;SDS011;20748;42.632;23.198;2023-11-22T09:04:12;11.60;;;6.93;;
34505;SDS011;20748;42.632;23.198;2023-11-22T09:06:49;11.15;;;6.70;;
34505;SDS011;20748;42.632;23.198;2023-11-22T09:09:22;13.95;;;6.93;;
34505;SDS011;20748;42.632;23.198;2023-11-22T09:12:03;12.80;;;6.82;;
34505;SDS011;20748;42.632;23.198;2023-11-22T09:14:44;13.68;;;7.38;;
34505;SDS011;20748;42.632;23.198;2023-11-22T09:17:18;14.43;;;7.22;;
34505;SDS011;20748;42.632;23.198;2023-11-22T09:19:52;11.13;;;6.28;;
34505;SDS011;20748;42.632;23.198;2023-11-22T09:22:29;13.43;;;7.00;;
34505;SDS011;20748;42.632;23.198;2023-11-22T09:25:05;10.48;;;5.57;;
34505;SDS011;20748;42.632;23.198;2023-11-22T09:27:42;8.25;;;4.60;;
34505;SDS011;20748;42.632;23.198;2023-11-22T09:30:19;9.50;;;5.35;;
34505;SDS011;20748;42.632;23.198;2023-11-22T09:33:07;14.93;;;5.70;;
34505;SDS011;20748;42.632;23.198;2023-11-22T09:35:44;12.55;;;6.65;;
34505;SDS011;20748;42.632;23.198;2023-11-22T09:38:21;11.85;;;6.57;;
34505;SDS011;20748;42.632;23.198;2023-11-22T09:40:55;11.05;;;6.00;;
34505;SDS011;20748;42.632;23.198;2023-11-22T09:43:31;11.52;;;6.50;;
34505;SDS011;20748;42.632;23.198;2023-11-22T09:46:05;12.25;;;7.30;;
34505;SDS011;20748;42.632;23.198;2023-11-22T09:48:44;14.25;;;7.68;;
34505;SDS011;20748;42.632;23.198;2023-11-22T09:51:23;14.02;;;7.20;;
34505;SDS011;20748;42.632;23.198;2023-11-22T09:54:00;13.57;;;7.65;;
34505;SDS011;20748;42.632;23.198;2023-11-22T09:56:39;13.63;;;7.85;;
34505;SDS011;20748;42.632;23.198;2023-11-22T09:59:17;15.95;;;7.45;;
34505;SDS011;20748;42.632;23.198;2023-11-22T10:01:55;14.25;;;7.65;;
34505;SDS011;20748;42.632;23.198;2023-11-22T10:04:31;11.95;;;7.30;;
34505;SDS011;20748;42.632;23.198;2023-11-22T10:07:06;12.73;;;7.35;;
34505;SDS011;20748;42.632;23.198;2023-11-22T10:09:44;14.25;;;8.27;;
34505;SDS011;20748;42.632;23.198;2023-11-22T10:12:18;12.93;;;8.95;;
34505;SDS011;20748;42.632;23.198;2023-11-22T10:14:52;17.27;;;9.82;;
34505;SDS011;20748;42.632;23.198;2023-11-22T10:17:26;17.20;;;9.23;;
34505;SDS011;20748;42.632;23.198;2023-11-22T10:20:01;16.92;;;8.75;;
34505;SDS011;20748;42.632;23.198;2023-11-22T10:22:39;14.05;;;8.48;;
34505;SDS011;20748;42.632;23.198;2023-11-22T10:25:19;15.88;;;8.95;;
34505;SDS011;20748;42.632;23.198;2023-11-22T10:27:55;14.05;;;8.55;;
34505;SDS011;20748;42.632;23.198;2023-11-22T10:30:30;17.23;;;9.77;;
34505;SDS011;20748;42.632;23.198;2023-11-22T10:33:06;12.98;;;8.70;;
34505;SDS011;20748;42.632;23.198;2023-11-22T10:35:41;17.45;;;9.82;;
34505;SDS011;20748;42.632;23.198;2023-11-22T10:38:17;19.05;;;9.13;;
34505;SDS011;20748;42.632;23.198;2023-11-22T10:40:53;13.60;;;8.43;;
34505;SDS011;20748;42.632;23.198;2023-11-22T10:43:30;17.67;;;8.75;;
34505;SDS011;20748;42.632;23.198;2023-11-22T10:46:05;18.10;;;10.98;;
34505;SDS011;20748;42.632;23.198;2023-11-22T10:48:42;16.02;;;9.75;;
34505;SDS011;20748;42.632;23.198;2023-11-22T10:51:16;21.73;;;10.10;;
34505;SDS011;20748;42.632;23.198;2023-11-22T10:53:52;18.20;;;11.15;;
34505;SDS011;20748;42.632;23.198;2023-11-22T10:56:28;20.35;;;11.32;;
34505;SDS011;20748;42.632;23.198;2023-11-22T10:59:06;19.70;;;12.07;;
34505;SDS011;20748;42.632;23.198;2023-11-22T11:01:45;15.57;;;10.20;;
34505;SDS011;20748;42.632;23.198;2023-11-22T11:04:23;21.42;;;12.40;;
34505;SDS011;20748;42.632;23.198;2023-11-22T11:07:00;18.08;;;10.18;;
34505;SDS011;20748;42.632;23.198;2023-11-22T11:09:37;18.63;;;10.75;;
34505;SDS011;20748;42.632;23.198;2023-11-22T11:12:13;19.17;;;11.32;;
34505;SDS011;20748;42.632;23.198;2023-11-22T11:14:47;19.02;;;12.60;;
34505;SDS011;20748;42.632;23.198;2023-11-22T11:17:22;23.52;;;13.68;;
34505;SDS011;20748;42.632;23.198;2023-11-22T11:19:57;21.65;;;12.90;;
34505;SDS011;20748;42.632;23.198;2023-11-22T11:22:32;23.20;;;12.93;;
34505;SDS011;20748;42.632;23.198;2023-11-22T11:25:06;26.33;;;14.48;;
34505;SDS011;20748;42.632;23.198;2023-11-22T11:27:43;23.10;;;14.70;;
34505;SDS011;20748;42.632;23.198;2023-11-22T11:33:26;24.38;;;13.63;;
34505;SDS011;20748;42.632;23.198;2023-11-22T11:36:01;27.70;;;12.90;;
34505;SDS011;20748;42.632;23.198;2023-11-22T11:38:37;25.15;;;13.85;;
34505;SDS011;20748;42.632;23.198;2023-11-22T11:41:11;27.83;;;15.30;;
34505;SDS011;20748;42.632;23.198;2023-11-22T11:43:48;27.02;;;15.65;;
34505;SDS011;20748;42.632;23.198;2023-11-22T11:46:22;31.60;;;18.42;;
34505;SDS011;20748;42.632;23.198;2023-11-22T11:48:57;31.55;;;15.82;;
34505;SDS011;20748;42.632;23.198;2023-11-22T11:51:31;28.27;;;16.55;;
34505;SDS011;20748;42.632;23.198;2023-11-22T11:54:05;26.77;;;15.15;;
34505;SDS011;20748;42.632;23.198;2023-11-22T11:56:41;29.55;;;16.88;;
34505;SDS011;20748;42.632;23.198;2023-11-22T11:59:18;30.42;;;16.83;;
34505;SDS011;20748;42.632;23.198;2023-11-22T12:01:52;40.53;;;18.58;;
34505;SDS011;20748;42.632;23.198;2023-11-22T12:04:27;30.48;;;18.48;;
34505;SDS011;20748;42.632;23.198;2023-11-22T12:07:02;29.13;;;18.02;;
34505;SDS011;20748;42.632;23.198;2023-11-22T12:09:36;28.52;;;16.30;;
34505;SDS011;20748;42.632;23.198;2023-11-22T12:12:09;26.77;;;15.15;;
34505;SDS011;20748;42.632;23.198;2023-11-22T12:14:44;32.17;;;16.77;;
34505;SDS011;20748;42.632;23.198;2023-11-22T12:17:18;28.67;;;16.95;;
34505;SDS011;20748;42.632;23.198;2023-11-22T12:19:53;33.20;;;15.63;;
34505;SDS011;20748;42.632;23.198;2023-11-22T12:22:26;28.33;;;16.58;;
34505;SDS011;20748;42.632;23.198;2023-11-22T12:25:03;23.70;;;14.40;;
34505;SDS011;20748;42.632;23.198;2023-11-22T12:27:41;24.63;;;15.05;;
34505;SDS011;20748;42.632;23.198;2023-11-22T12:30:28;24.08;;;14.20;;
34505;SDS011;20748;42.632;23.198;2023-11-22T12:33:04;28.30;;;14.80;;
34505;SDS011;20748;42.632;23.198;2023-11-22T12:35:39;28.00;;;13.20;;
34505;SDS011;20748;42.632;23.198;2023-11-22T12:38:13;25.25;;;13.68;;
34505;SDS011;20748;42.632;23.198;2023-11-22T12:40:48;25.38;;;13.52;;
34505;SDS011;20748;42.632;23.198;2023-11-22T12:43:22;24.67;;;15.48;;
34505;SDS011;20748;42.632;23.198;2023-11-22T12:46:05;27.65;;;15.77;;
34505;SDS011;20748;42.632;23.198;2023-11-22T12:48:39;27.48;;;15.05;;
34505;SDS011;20748;42.632;23.198;2023-11-22T12:51:14;27.17;;;16.13;;
34505;SDS011;20748;42.632;23.198;2023-11-22T12:53:49;26.85;;;16.58;;
34505;SDS011;20748;42.632;23.198;2023-11-22T12:56:23;31.90;;;16.80;;
34505;SDS011;20748;42.632;23.198;2023-11-22T12:59:00;28.55;;;17.10;;
34505;SDS011;20748;42.632;23.198;2023-11-22T13:01:35;32.40;;;18.27;;
34505;SDS011;20748;42.632;23.198;2023-11-22T13:04:09;32.55;;;18.73;;
34505;SDS011;20748;42.632;23.198;2023-11-22T13:06:44;32.38;;;18.40;;
34505;SDS011;20748;42.632;23.198;2023-11-22T13:09:18;34.95;;;19.95;;
34505;SDS011;20748;42.632;23.198;2023-11-22T13:11:52;29.70;;;17.33;;
34505;SDS011;20748;42.632;23.198;2023-11-22T13:14:25;31.40;;;17.88;;
34505;SDS011;20748;42.632;23.198;2023-11-22T13:17:06;37.00;;;19.40;;
34505;SDS011;20748;42.632;23.198;2023-11-22T13:19:39;34.92;;;18.40;;
34505;SDS011;20748;42.632;23.198;2023-11-22T13:22:15;32.95;;;19.10;;
34505;SDS011;20748;42.632;23.198;2023-11-22T13:24:51;30.58;;;18.35;;
34505;SDS011;20748;42.632;23.198;2023-11-22T13:27:25;37.13;;;20.90;;
34505;SDS011;20748;42.632;23.198;2023-11-22T13:29:58;33.00;;;19.83;;
34505;SDS011;20748;42.632;23.198;2023-11-22T13:32:33;34.10;;;20.40;;
34505;SDS011;20748;42.632;23.198;2023-11-22T13:35:08;33.45;;;19.75;;
34505;SDS011;20748;42.632;23.198;2023-11-22T13:37:47;35.28;;;20.25;;
34505;SDS011;20748;42.632;23.198;2023-11-22T13:40:21;37.70;;;20.70;;
34505;SDS011;20748;42.632;23.198;2023-11-22T13:42:55;39.00;;;21.65;;
34505;SDS011;20748;42.632;23.198;2023-11-22T13:45:29;32.47;;;18.20;;
34505;SDS011;20748;42.632;23.198;2023-11-22T13:48:04;38.97;;;21.23;;
34505;SDS011;20748;42.632;23.198;2023-11-22T13:50:39;38.00;;;21.08;;
34505;SDS011;20748;42.632;23.198;2023-11-22T13:53:13;35.50;;;20.00;;
34505;SDS011;20748;42.632;23.198;2023-11-22T13:55:47;32.13;;;18.45;;
34505;SDS011;20748;42.632;23.198;2023-11-22T13:58:22;29.42;;;16.92;;
34505;SDS011;20748;42.632;23.198;2023-11-22T14:00:56;29.08;;;15.88;;
34505;SDS011;20748;42.632;23.198;2023-11-22T14:03:32;24.58;;;13.95;;
34505;SDS011;20748;42.632;23.198;2023-11-22T14:06:07;24.25;;;14.52;;
34505;SDS011;20748;42.632;23.198;2023-11-22T14:08:42;25.30;;;14.65;;
34505;SDS011;20748;42.632;23.198;2023-11-22T14:11:15;25.23;;;15.23;;
34505;SDS011;20748;42.632;23.198;2023-11-22T14:13:49;25.35;;;14.35;;
34505;SDS011;20748;42.632;23.198;2023-11-22T14:16:23;28.42;;;12.65;;
34505;SDS011;20748;42.632;23.198;2023-11-22T14:18:59;23.48;;;12.27;;
34505;SDS011;20748;42.632;23.198;2023-11-22T14:21:33;22.85;;;13.95;;
34505;SDS011;20748;42.632;23.198;2023-11-22T14:24:08;27.27;;;14.88;;
34505;SDS011;20748;42.632;23.198;2023-11-22T14:26:42;24.92;;;14.88;;
34505;SDS011;20748;42.632;23.198;2023-11-22T14:29:21;31.25;;;14.85;;
34505;SDS011;20748;42.632;23.198;2023-11-22T14:31:55;27.90;;;15.75;;
34505;SDS011;20748;42.632;23.198;2023-11-22T14:34:30;30.98;;;17.80;;
34505;SDS011;20748;42.632;23.198;2023-11-22T14:37:04;31.27;;;17.73;;
34505;SDS011;20748;42.632;23.198;2023-11-22T14:39:38;31.98;;;18.67;;
34505;SDS011;20748;42.632;23.198;2023-11-22T14:42:12;32.45;;;18.60;;
34505;SDS011;20748;42.632;23.198;2023-11-22T14:44:47;28.85;;;17.05;;
34505;SDS011;20748;42.632;23.198;2023-11-22T14:47:20;31.88;;;16.63;;
34505;SDS011;20748;42.632;23.198;2023-11-22T14:49:58;29.33;;;17.17;;
34505;SDS011;20748;42.632;23.198;2023-11-22T14:52:32;26.77;;;14.80;;
34505;SDS011;20748;42.632;23.198;2023-11-22T14:55:07;21.30;;;12.80;;
34505;SDS011;20748;42.632;23.198;2023-11-22T14:57:43;19.88;;;10.60;;
34505;SDS011;20748;42.632;23.198;2023-11-22T15:00:17;21.17;;;12.57;;
34505;SDS011;20748;42.632;23.198;2023-11-22T15:02:52;17.70;;;9.57;;
34505;SDS011;20748;42.632;23.198;2023-11-22T15:05:30;13.95;;;8.30;;
34505;SDS011;20748;42.632;23.198;2023-11-22T15:08:04;16.75;;;8.25;;
34505;SDS011;20748;42.632;23.198;2023-11-22T15:10:39;13.90;;;7.88;;